This is the latest recevied weather packets stored in our database for station/object KB2FWP. If no packets are shown the sender has not sent any weather packets the latest 10 day(s).
| Time | Temp. | Humidity | Pressure | Rain* | Wind** | Luminosity | Snow |
|---|---|---|---|---|---|---|---|
| 1777757455 | 14.44° C | 66% | 1011.2 hPa | 0 mm | - | - | - |
| 1777756561 | 15° C | 64% | 1011 hPa | 0 mm | - | - | - |
| 1777755648 | 15° C | 67% | 1011 hPa | 0 mm | - | - | - |
| 1777754748 | 15° C | 68% | 1010.9 hPa | 0 mm | - | - | - |
| 1777753851 | 15° C | 66% | 1011 hPa | 0 mm | - | - | - |
| 1777752945 | 15° C | 65% | 1011.1 hPa | 0 mm | - | - | - |
| 1777752044 | 15° C | 66% | 1011.3 hPa | 0 mm | - | - | - |
| 1777751144 | 15.56° C | 64% | 1011.6 hPa | 0 mm | - | - | - |
| 1777750238 | 14.44° C | 69% | 1011.9 hPa | 0 mm | - | - | - |
| 1777749337 | 15° C | 67% | 1012 hPa | 0 mm | - | - | - |
| 1777748439 | 14.44° C | 70% | 1012.3 hPa | 0 mm | - | - | - |
| 1777747548 | 14.44° C | 71% | 1012.3 hPa | 0 mm | - | - | - |
| 1777746647 | 14.44° C | 72% | 1012.4 hPa | 0 mm | - | - | - |
| 1777745737 | 14.44° C | 73% | 1012.4 hPa | 0 mm | - | - | - |
| 1777744826 | 13.89° C | 75% | 1012.5 hPa | 0 mm | - | - | - |
| 1777743924 | 13.33° C | 78% | 1012.5 hPa | 0 mm | - | - | - |
| 1777743033 | 12.22° C | 80% | 1012.7 hPa | 0 mm | - | - | - |
| 1777742122 | 12.78° C | 80% | 1012.8 hPa | 0 mm | - | - | - |
| 1777741216 | 12.22° C | 82% | 1013 hPa | 0 mm | - | - | - |
| 1777740314 | 12.22° C | 83% | 1013.1 hPa | 0 mm | - | - | - |
| 1777739421 | 12.22° C | 84% | 1013.1 hPa | 0 mm | - | - | - |
| 1777738514 | 11.67° C | 86% | 1013.1 hPa | 0 mm | - | - | - |
| 1777737616 | 11.67° C | 86% | 1013.2 hPa | 0 mm | - | - | - |
| 1777736717 | 11.67° C | 87% | 1013.3 hPa | 0 mm | - | - | - |
| 1777735812 | 11.67° C | 86% | 1013.4 hPa | 0 mm | - | - | - |
* Rain latest hour (hover to see other rain measurements)
** Current wind speed in m/s (hover to see current wind gust speed)